Time;durP1;ratioP1;P1;durP2;ratioP2;P2;SDS_P1;SDS_P2;PMS_P1;PMS_P2;Temp;Humidity;BMP_temperature;BMP_pressure;BME280_temperature;BME280_humidity;BME280_pressure;Samples;Min_cycle;Max_cycle;Signal;HPM_P1;HPM_P2
2022/04/10 00:00:00;;;;;;;5.03;1.88;;;5.00;72.10;;;;;;5091169;28;20467;-70
2022/04/10 00:02:26;;;;;;;5.18;2.03;;;5.00;72.30;;;;;;5087518;28;20052;-70
2022/04/10 00:04:51;;;;;;;5.25;2.20;;;5.00;72.40;;;;;;5096711;28;20000;-67
2022/04/10 00:07:17;;;;;;;6.07;2.13;;;5.00;72.40;;;;;;5093560;28;20035;-71
2022/04/10 00:09:42;;;;;;;6.22;2.00;;;4.90;72.30;;;;;;5080055;28;20073;-68
2022/04/10 00:12:08;;;;;;;6.30;2.17;;;4.90;72.40;;;;;;5090193;28;20032;-70
2022/04/10 00:14:33;;;;;;;5.90;2.05;;;4.90;72.40;;;;;;5090296;28;20119;-69
2022/04/10 00:16:59;;;;;;;4.32;1.60;;;4.90;72.40;;;;;;5088566;28;20020;-70
2022/04/10 00:19:24;;;;;;;3.03;1.77;;;4.90;72.40;;;;;;5088083;28;20486;-68
2022/04/10 00:21:50;;;;;;;4.38;1.98;;;4.90;72.40;;;;;;5086485;28;20531;-70
2022/04/10 00:24:15;;;;;;;4.40;1.95;;;4.90;72.60;;;;;;5091128;28;20397;-70
2022/04/10 00:26:41;;;;;;;6.18;2.10;;;4.90;72.60;;;;;;5091204;28;20028;-68
2022/04/10 00:29:07;;;;;;;5.10;1.63;;;4.80;72.70;;;;;;5087210;28;20398;-70
2022/04/10 00:31:32;;;;;;;3.00;1.67;;;4.80;72.60;;;;;;5088523;28;20551;-70
2022/04/10 00:33:58;;;;;;;5.28;1.80;;;4.80;72.60;;;;;;5090733;28;20036;-70
2022/04/10 00:36:23;;;;;;;4.63;1.70;;;4.90;72.60;;;;;;5092625;28;20024;-69
2022/04/10 00:38:49;;;;;;;5.30;1.58;;;4.90;72.60;;;;;;5088720;28;20402;-70
2022/04/10 00:41:14;;;;;;;4.45;1.60;;;4.90;72.50;;;;;;5087756;28;20394;-70
2022/04/10 00:44:10;;;;;;;2.85;1.40;;;4.80;72.50;;;;;;5090106;28;20046;-70
2022/04/10 00:46:36;;;;;;;3.95;1.50;;;4.80;72.60;;;;;;5092168;28;20102;-70
2022/04/10 00:49:03;;;;;;;4.30;1.90;;;4.80;72.50;;;;;;5091352;28;20015;-69
2022/04/10 00:51:46;;;;;;;4.78;1.75;;;4.80;72.60;;;;;;5088698;28;20390;-70
2022/04/10 00:54:17;;;;;;;6.30;2.00;;;4.80;72.70;;;;;;5088436;28;20031;-70
2022/04/10 00:56:44;;;;;;;6.75;1.80;;;4.80;72.80;;;;;;5094812;28;20088;-69
2022/04/10 00:59:10;;;;;;;4.65;1.80;;;4.80;72.90;;;;;;5084201;28;20027;-71
2022/04/10 01:01:37;;;;;;;3.13;1.40;;;4.80;73.00;;;;;;5087632;28;20028;-71
2022/04/10 01:04:04;;;;;;;4.88;1.88;;;4.80;73.00;;;;;;5084942;28;20363;-70
2022/04/10 01:06:32;;;;;;;4.80;1.60;;;4.80;73.00;;;;;;5090976;28;20027;-69
2022/04/10 01:08:58;;;;;;;4.28;1.70;;;4.80;73.00;;;;;;5085899;28;20028;-71
2022/04/10 01:11:24;;;;;;;4.35;1.63;;;4.70;72.90;;;;;;5088434;28;20056;-71
2022/04/10 01:13:52;;;;;;;7.50;1.92;;;4.80;73.70;;;;;;5089441;28;20753;-71
2022/04/10 01:16:18;;;;;;;4.53;1.83;;;4.80;73.00;;;;;;5101292;28;20031;-70
2022/04/10 01:18:44;;;;;;;4.43;1.52;;;4.80;73.00;;;;;;5083425;28;20427;-71
2022/04/10 01:21:14;;;;;;;4.70;1.70;;;4.80;73.00;;;;;;5096350;28;20049;-70
2022/04/10 01:23:43;;;;;;;5.85;1.63;;;4.80;72.90;;;;;;5100980;28;20073;-71
2022/04/10 01:26:08;;;;;;;5.10;1.70;;;4.90;72.90;;;;;;5099174;28;20104;-71
2022/04/10 01:28:33;;;;;;;4.55;1.55;;;4.90;72.70;;;;;;5091645;28;20103;-70
2022/04/10 01:30:59;;;;;;;3.97;1.40;;;4.90;72.70;;;;;;5088791;28;20039;-69
2022/04/10 01:33:24;;;;;;;4.40;1.50;;;4.90;72.70;;;;;;5091306;28;20073;-69
2022/04/10 01:35:51;;;;;;;6.80;1.67;;;4.90;72.60;;;;;;5088632;28;20698;-69
2022/04/10 01:38:17;;;;;;;4.78;1.40;;;4.90;72.60;;;;;;5090031;28;20056;-68
2022/04/10 01:40:43;;;;;;;4.82;2.00;;;4.90;72.60;;;;;;5085375;28;20536;-68
2022/04/10 01:43:08;;;;;;;3.65;1.48;;;4.90;72.60;;;;;;5090445;28;20115;-69
2022/04/10 01:45:34;;;;;;;3.67;1.40;;;4.90;72.60;;;;;;5097735;28;20770;-70
2022/04/10 01:48:00;;;;;;;4.40;1.70;;;4.80;72.60;;;;;;5091588;28;20090;-70
2022/04/10 01:50:26;;;;;;;3.45;1.60;;;4.80;72.80;;;;;;5091266;28;20020;-70
2022/04/10 01:52:51;;;;;;;4.35;1.40;;;4.80;72.90;;;;;;5092953;28;20039;-70
2022/04/10 01:55:17;;;;;;;3.30;1.52;;;4.70;73.00;;;;;;5097404;28;20397;-70
2022/04/10 01:57:42;;;;;;;5.10;1.70;;;4.80;73.10;;;;;;5097495;28;20218;-69
2022/04/10 02:00:09;;;;;;;5.53;1.40;;;4.70;73.00;;;;;;5091498;28;20043;-70
2022/04/10 02:02:34;;;;;;;3.00;1.52;;;4.70;73.10;;;;;;5091170;28;20035;-70
2022/04/10 02:05:00;;;;;;;3.50;1.70;;;4.70;73.10;;;;;;5095088;28;20027;-70
2022/04/10 02:07:25;;;;;;;6.30;1.70;;;4.70;73.10;;;;;;5104471;28;20031;-70
2022/04/10 02:09:51;;;;;;;3.45;1.30;;;4.70;73.10;;;;;;5096351;28;20024;-70
2022/04/10 02:12:16;;;;;;;4.15;1.73;;;4.60;73.10;;;;;;5086899;28;20078;-70
2022/04/10 02:14:42;;;;;;;4.35;1.95;;;4.70;73.20;;;;;;5089576;28;20054;-70
2022/04/10 02:17:07;;;;;;;6.43;1.90;;;4.70;73.20;;;;;;5091965;28;20035;-70
2022/04/10 02:19:33;;;;;;;7.78;2.20;;;4.70;73.20;;;;;;5092405;28;20035;-69
2022/04/10 02:22:04;;;;;;;3.72;1.83;;;4.70;73.20;;;;;;5088609;28;20103;-71
2022/04/10 02:24:30;;;;;;;6.97;2.13;;;4.60;73.20;;;;;;5089602;28;20024;-69
2022/04/10 02:26:55;;;;;;;4.95;1.80;;;4.60;73.20;;;;;;5093541;28;20545;-69
2022/04/10 02:29:21;;;;;;;3.50;1.80;;;4.60;73.90;;;;;;5089928;28;20355;-70
2022/04/10 02:31:47;;;;;;;5.25;2.28;;;4.50;73.80;;;;;;5100571;28;20092;-71
2022/04/10 02:34:12;;;;;;;6.53;2.10;;;4.60;73.30;;;;;;5086226;28;20024;-69
2022/04/10 02:36:38;;;;;;;4.80;2.00;;;4.50;73.20;;;;;;5091547;28;20031;-70
2022/04/10 02:39:03;;;;;;;3.67;1.60;;;4.50;73.30;;;;;;5094525;28;20031;-70
2022/04/10 02:41:29;;;;;;;5.07;1.70;;;4.50;73.30;;;;;;5098302;28;20027;-71
2022/04/10 02:43:54;;;;;;;5.22;1.90;;;4.50;73.30;;;;;;5091622;28;20125;-71
2022/04/10 02:46:20;;;;;;;4.95;2.28;;;4.50;73.30;;;;;;5090581;28;20605;-70
2022/04/10 02:48:45;;;;;;;6.72;2.30;;;4.50;73.50;;;;;;5096333;28;20482;-71
2022/04/10 02:51:11;;;;;;;6.10;1.90;;;4.50;73.50;;;;;;5095373;28;20027;-71
2022/04/10 02:53:36;;;;;;;6.65;2.28;;;4.50;73.40;;;;;;5096192;28;20403;-71
2022/04/10 02:56:02;;;;;;;5.18;1.83;;;4.50;73.40;;;;;;5092058;28;20108;-70
2022/04/10 02:58:28;;;;;;;6.07;1.83;;;4.50;73.40;;;;;;5096496;28;20048;-70
2022/04/10 03:00:53;;;;;;;3.65;1.70;;;4.50;73.30;;;;;;5092873;28;20035;-70
2022/04/10 03:03:19;;;;;;;4.13;2.00;;;4.50;73.20;;;;;;5098428;28;20016;-70
2022/04/10 03:05:44;;;;;;;6.68;2.20;;;4.50;73.20;;;;;;5089734;28;20028;-71
2022/04/10 03:08:10;;;;;;;4.93;2.55;;;4.30;73.10;;;;;;5097320;28;20040;-70
2022/04/10 03:10:35;;;;;;;7.43;2.20;;;4.30;74.00;;;;;;5087974;28;20032;-70
2022/04/10 03:13:01;;;;;;;5.78;2.10;;;4.20;73.40;;;;;;5098105;28;20036;-70
2022/04/10 03:15:27;;;;;;;7.40;2.45;;;4.20;73.50;;;;;;5083328;28;20367;-71
2022/04/10 03:17:52;;;;;;;5.63;2.10;;;4.20;73.60;;;;;;5099538;28;20034;-71
2022/04/10 03:20:20;;;;;;;6.32;2.17;;;4.20;73.70;;;;;;5087786;28;20020;-71
2022/04/10 03:22:46;;;;;;;5.30;2.10;;;4.20;73.60;;;;;;5090419;28;20020;-71
2022/04/10 03:25:11;;;;;;;5.72;1.92;;;4.20;74.30;;;;;;5089267;28;20039;-71
2022/04/10 03:27:37;;;;;;;5.00;1.90;;;4.20;73.60;;;;;;5099912;28;20019;-71
2022/04/10 03:30:03;;;;;;;4.90;1.95;;;4.20;73.60;;;;;;5090936;28;20028;-70
2022/04/10 03:32:29;;;;;;;2.65;1.80;;;4.20;73.70;;;;;;5085029;28;20032;-70
2022/04/10 03:34:54;;;;;;;9.30;2.00;;;4.10;73.70;;;;;;5089642;28;20511;-70
2022/04/10 03:37:20;;;;;;;5.22;2.13;;;4.20;73.80;;;;;;5089657;28;20032;-71
2022/04/10 03:39:45;;;;;;;4.03;1.90;;;4.10;73.70;;;;;;5086019;28;20398;-70
2022/04/10 03:42:10;;;;;;;3.70;1.92;;;4.20;73.80;;;;;;5090002;28;20073;-70
2022/04/10 03:44:36;;;;;;;5.75;1.90;;;4.10;73.70;;;;;;5087999;28;20382;-70
2022/04/10 03:47:02;;;;;;;3.13;1.98;;;4.10;73.80;;;;;;5100184;28;20020;-70
2022/04/10 03:49:27;;;;;;;4.03;1.95;;;4.10;73.70;;;;;;5094768;28;20028;-69
2022/04/10 03:51:53;;;;;;;6.35;1.92;;;4.10;73.60;;;;;;5090980;28;20024;-69
2022/04/10 03:54:18;;;;;;;2.28;1.50;;;4.20;73.70;;;;;;5087746;28;20020;-70
2022/04/10 03:56:43;;;;;;;6.85;1.85;;;4.10;73.50;;;;;;5090877;28;20103;-70
2022/04/10 03:59:09;;;;;;;4.20;1.70;;;4.10;73.60;;;;;;5087408;28;20024;-70
2022/04/10 04:01:35;;;;;;;4.65;2.15;;;4.10;73.60;;;;;;5084604;28;20035;-70
2022/04/10 04:04:00;;;;;;;4.65;1.83;;;4.10;73.70;;;;;;5087943;28;20069;-70
2022/04/10 04:06:26;;;;;;;4.00;2.13;;;4.00;73.70;;;;;;5092245;28;20012;-71
2022/04/10 04:08:51;;;;;;;4.43;1.75;;;4.00;73.80;;;;;;5091692;28;20025;-70
2022/04/10 04:11:17;;;;;;;2.20;1.50;;;4.00;73.90;;;;;;5092362;28;20099;-69
2022/04/10 04:13:42;;;;;;;5.47;2.05;;;4.00;74.50;;;;;;5087738;28;20039;-70
2022/04/10 04:16:08;;;;;;;3.72;2.00;;;3.90;73.80;;;;;;5089971;28;20027;-70
2022/04/10 04:18:34;;;;;;;5.45;1.95;;;4.00;73.90;;;;;;5089637;28;20585;-70
2022/04/10 04:21:13;;;;;;;3.42;1.90;;;4.00;74.00;;;;;;5096382;28;20108;-70
2022/04/10 04:23:38;;;;;;;4.57;2.05;;;4.00;74.10;;;;;;5078353;28;20020;-70
2022/04/10 04:26:05;;;;;;;4.13;1.75;;;4.00;74.10;;;;;;5089201;28;20385;-69
2022/04/10 04:28:32;;;;;;;5.72;1.60;;;4.00;74.10;;;;;;5105319;28;20446;-70
2022/04/10 04:30:57;;;;;;;4.38;2.00;;;4.00;74.10;;;;;;5083532;28;20093;-69
2022/04/10 04:33:23;;;;;;;5.20;2.10;;;4.00;74.10;;;;;;5088354;28;20487;-69
2022/04/10 04:35:48;;;;;;;5.43;2.20;;;4.00;74.20;;;;;;5086606;28;20040;-70
2022/04/10 04:38:14;;;;;;;4.45;1.90;;;4.00;74.20;;;;;;5091005;28;20406;-70
2022/04/10 04:40:39;;;;;;;4.82;1.80;;;4.00;74.20;;;;;;5087017;28;20053;-69
2022/04/10 04:43:05;;;;;;;5.68;1.85;;;4.00;74.10;;;;;;5089114;28;20470;-69
2022/04/10 04:45:30;;;;;;;6.20;1.90;;;4.00;74.10;;;;;;5088710;28;20055;-69
2022/04/10 04:47:56;;;;;;;4.60;1.73;;;4.00;74.00;;;;;;5097577;28;20020;-69
2022/04/10 04:50:23;;;;;;;6.07;1.85;;;4.00;74.10;;;;;;5095138;28;20020;-69
2022/04/10 04:52:48;;;;;;;5.30;1.92;;;4.10;74.20;;;;;;5097410;28;20020;-70
2022/04/10 04:55:14;;;;;;;4.15;1.90;;;4.00;74.00;;;;;;5093710;28;20028;-69
2022/04/10 04:57:39;;;;;;;4.90;1.95;;;4.10;74.00;;;;;;5094405;28;20069;-70
2022/04/10 05:00:05;;;;;;;4.72;1.80;;;4.10;74.00;;;;;;5096700;28;20501;-70
2022/04/10 05:02:31;;;;;;;3.20;1.90;;;4.10;73.90;;;;;;5094297;28;20049;-70
2022/04/10 05:05:09;;;;;;;4.10;1.90;;;4.10;73.90;;;;;;5090085;28;20437;-69
2022/04/10 05:07:34;;;;;;;4.47;2.20;;;4.10;73.90;;;;;;5096414;28;20111;-70
2022/04/10 05:10:00;;;;;;;4.50;1.77;;;4.10;73.80;;;;;;5091271;28;20083;-69
2022/04/10 05:12:25;;;;;;;4.50;1.75;;;4.10;73.80;;;;;;5110511;28;20371;-70
2022/04/10 05:14:50;;;;;;;4.93;1.90;;;4.10;73.70;;;;;;5099868;28;20100;-69
2022/04/10 05:17:16;;;;;;;4.97;2.00;;;4.10;73.70;;;;;;5096686;28;20024;-70
2022/04/10 05:19:41;;;;;;;4.85;1.73;;;4.10;73.70;;;;;;5099735;28;20055;-70
2022/04/10 05:22:07;;;;;;;4.13;1.80;;;4.20;73.70;;;;;;5096457;28;20032;-70
2022/04/10 05:27:17;;;;;;;4.22;1.83;;;4.30;73.40;;;;;;5089700;28;20390;-70
2022/04/10 05:29:42;;;;;;;3.53;1.70;;;4.40;73.40;;;;;;5101107;28;20098;-69
2022/04/10 05:32:08;;;;;;;5.70;2.10;;;5.00;73.60;;;;;;5097569;28;20036;-69
2022/04/10 05:34:34;;;;;;;3.28;2.00;;;5.90;72.20;;;;;;5112673;28;20038;-69
2022/04/10 05:37:00;;;;;;;6.03;1.88;;;6.80;70.10;;;;;;5095619;27;20035;-69
2022/04/10 05:39:25;;;;;;;4.32;1.77;;;7.70;68.00;;;;;;5101803;28;20030;-70
2022/04/10 05:41:51;;;;;;;6.15;2.00;;;8.50;65.90;;;;;;5097571;28;20379;-70
2022/04/10 05:44:16;;;;;;;4.32;1.60;;;8.80;64.20;;;;;;5097579;28;20035;-70
2022/04/10 05:46:42;;;;;;;4.82;2.08;;;8.70;63.70;;;;;;5092590;28;20101;-70
2022/04/10 05:49:07;;;;;;;3.70;1.63;;;8.40;63.50;;;;;;5100170;28;20487;-70
2022/04/10 05:51:33;;;;;;;4.80;2.13;;;8.10;64.10;;;;;;5100657;28;20031;-72
2022/04/10 05:53:59;;;;;;;6.00;1.92;;;7.80;64.50;;;;;;5096916;28;20479;-70
2022/04/10 05:56:24;;;;;;;4.47;2.17;;;7.80;65.20;;;;;;5086020;28;20032;-68
2022/04/10 05:58:50;;;;;;;5.93;2.03;;;7.90;65.10;;;;;;5093859;28;20104;-69
2022/04/10 06:01:15;;;;;;;5.78;2.20;;;8.20;65.00;;;;;;5099452;28;20102;-69
2022/04/10 06:03:41;;;;;;;4.45;1.80;;;9.30;63.70;;;;;;5092749;28;20031;-70
2022/04/10 06:06:07;;;;;;;5.32;2.10;;;10.50;61.10;;;;;;5090266;28;20157;-70
2022/04/10 06:08:32;;;;;;;2.78;1.58;;;11.60;58.90;;;;;;5080493;28;20016;-70
2022/04/10 06:10:58;;;;;;;3.60;1.67;;;12.60;56.70;;;;;;5077333;28;20367;-69
2022/04/10 06:13:24;;;;;;;5.85;1.70;;;13.40;55.00;;;;;;5087428;28;20024;-68
2022/04/10 06:15:50;;;;;;;6.57;1.80;;;14.00;53.30;;;;;;5095792;28;20069;-68
2022/04/10 06:18:16;;;;;;;3.55;1.35;;;14.50;51.90;;;;;;5091806;28;20028;-68
2022/04/10 06:20:42;;;;;;;3.85;1.52;;;15.00;50.70;;;;;;5092523;28;20032;-68
2022/04/10 06:23:07;;;;;;;4.65;1.70;;;15.60;49.60;;;;;;5080864;28;20035;-68
2022/04/10 06:25:33;;;;;;;4.45;1.63;;;16.20;48.60;;;;;;5085827;28;20493;-70
2022/04/10 06:27:58;;;;;;;3.85;1.60;;;16.60;46.90;;;;;;5089765;28;20471;-69
2022/04/10 06:30:24;;;;;;;4.40;1.60;;;17.10;46.30;;;;;;5102150;28;20032;-69
2022/04/10 06:32:49;;;;;;;2.33;1.38;;;17.60;45.00;;;;;;5085497;28;20434;-68
2022/04/10 06:35:15;;;;;;;3.53;1.00;;;17.90;44.30;;;;;;5092072;28;20027;-69
2022/04/10 06:37:42;;;;;;;3.83;1.52;;;18.40;44.00;;;;;;5086049;28;20024;-69
2022/04/10 06:40:08;;;;;;;5.25;1.67;;;18.60;43.00;;;;;;5102510;28;20024;-69
2022/04/10 06:42:34;;;;;;;3.25;1.35;;;19.00;42.20;;;;;;5088546;28;20059;-69
2022/04/10 06:44:59;;;;;;;3.40;1.60;;;18.50;41.80;;;;;;5086548;28;20025;-69
2022/04/10 06:47:27;;;;;;;3.28;1.70;;;19.00;41.30;;;;;;5079634;28;20047;-69
2022/04/10 06:49:53;;;;;;;3.67;1.60;;;17.50;41.30;;;;;;5090129;28;20051;-69
2022/04/10 06:52:19;;;;;;;3.90;1.75;;;15.60;43.70;;;;;;5082113;28;20019;-69
2022/04/10 06:54:44;;;;;;;4.65;2.00;;;13.90;46.20;;;;;;5083965;28;20158;-68
2022/04/10 06:57:10;;;;;;;3.85;1.70;;;12.30;48.80;;;;;;5084094;28;20020;-69
2022/04/10 06:59:35;;;;;;;4.60;2.00;;;11.30;51.30;;;;;;5086854;28;20051;-69
2022/04/10 07:02:01;;;;;;;6.88;2.03;;;10.40;53.40;;;;;;5084026;28;20028;-68
2022/04/10 07:04:27;;;;;;;3.75;1.63;;;10.00;55.30;;;;;;5085341;28;20665;-70
2022/04/10 07:06:52;;;;;;;4.70;2.05;;;9.50;56.30;;;;;;5080882;28;20016;-69
2022/04/10 07:09:18;;;;;;;4.32;1.80;;;9.10;57.70;;;;;;5073092;28;20024;-69
2022/04/10 07:11:45;;;;;;;5.15;2.08;;;8.80;58.80;;;;;;5077461;28;20039;-70
2022/04/10 07:14:10;;;;;;;4.90;1.90;;;8.80;59.70;;;;;;5083808;28;20028;-70
2022/04/10 07:16:36;;;;;;;5.18;1.88;;;8.40;60.30;;;;;;5076111;28;20028;-70
2022/04/10 07:19:02;;;;;;;4.18;1.77;;;8.10;61.20;;;;;;5080521;28;20106;-69
2022/04/10 07:24:12;;;;;;;3.75;1.48;;;7.70;63.10;;;;;;5080280;28;20385;-68
2022/04/10 07:26:37;;;;;;;3.53;1.48;;;7.40;63.80;;;;;;5080558;28;20024;-68
2022/04/10 07:29:03;;;;;;;3.15;1.50;;;7.30;64.60;;;;;;5080752;28;20033;-67
2022/04/10 07:31:29;;;;;;;3.88;1.50;;;7.40;65.40;;;;;;5078976;28;20106;-68
2022/04/10 07:33:54;;;;;;;4.43;1.58;;;8.20;64.40;;;;;;5081180;28;20044;-69
2022/04/10 07:36:20;;;;;;;3.55;1.40;;;10.20;61.60;;;;;;5079635;28;20124;-69
2022/04/10 07:38:45;;;;;;;2.92;1.30;;;12.10;57.50;;;;;;5085371;28;20024;-70
2022/04/10 07:41:11;;;;;;;3.22;1.38;;;13.70;53.70;;;;;;5082535;28;20730;-69
2022/04/10 07:43:36;;;;;;;3.30;1.23;;;14.80;51.10;;;;;;5079779;28;20035;-70
2022/04/10 07:48:46;;;;;;;1.70;1.15;;;16.50;47.30;;;;;;5081855;28;20476;-70
2022/04/10 07:51:12;;;;;;;4.00;1.08;;;17.40;46.00;;;;;;5093522;28;20028;-69
2022/04/10 07:53:37;;;;;;;2.15;1.20;;;17.60;44.70;;;;;;5080031;28;20546;-69
2022/04/10 07:56:03;;;;;;;1.90;1.05;;;18.00;44.10;;;;;;5080795;28;20032;-70
2022/04/10 07:58:28;;;;;;;3.10;1.20;;;17.50;43.90;;;;;;5084201;28;20100;-70
2022/04/10 08:00:54;;;;;;;2.28;1.00;;;16.10;45.40;;;;;;5078289;28;20478;-69
2022/04/10 08:03:19;;;;;;;3.00;1.48;;;15.00;47.50;;;;;;5080843;28;20056;-69
2022/04/10 08:05:45;;;;;;;1.67;1.10;;;16.10;47.20;;;;;;5078286;28;20390;-70
2022/04/10 08:08:11;;;;;;;2.25;1.00;;;16.10;46.30;;;;;;5077211;28;20470;-69
2022/04/10 08:10:37;;;;;;;2.58;0.90;;;17.00;45.10;;;;;;5083160;28;20115;-70
2022/04/10 08:13:03;;;;;;;3.88;1.20;;;17.70;44.10;;;;;;5082079;28;20029;-70
2022/04/10 08:15:29;;;;;;;2.55;1.00;;;17.90;42.40;;;;;;5077982;28;20520;-69
2022/04/10 08:21:17;;;;;;;1.10;0.90;;;18.40;42.30;;;;;;5069317;28;20113;-69
2022/04/10 08:23:42;;;;;;;3.33;1.10;;;18.70;41.60;;;;;;5077085;28;20108;-69
2022/04/10 08:26:08;;;;;;;1.83;0.93;;;18.90;41.20;;;;;;5087507;28;20099;-70
2022/04/10 08:28:34;;;;;;;2.88;1.10;;;18.90;41.10;;;;;;5078157;28;20040;-70
2022/04/10 08:31:00;;;;;;;2.25;1.00;;;18.80;41.10;;;;;;5076164;28;20492;-69
2022/04/10 08:33:26;;;;;;;2.50;1.00;;;18.60;41.00;;;;;;5082210;28;20020;-70
2022/04/10 08:35:51;;;;;;;2.63;1.05;;;17.80;40.80;;;;;;5073638;28;20024;-70
2022/04/10 08:38:17;;;;;;;2.15;0.90;;;16.10;43.20;;;;;;5083650;28;20101;-69
2022/04/10 08:40:44;;;;;;;1.70;1.00;;;15.70;44.60;;;;;;5079297;28;20024;-69
2022/04/10 08:43:11;;;;;;;3.35;1.00;;;15.40;44.60;;;;;;5086481;28;20016;-70
2022/04/10 08:45:38;;;;;;;1.73;1.00;;;14.80;45.70;;;;;;5074391;28;20036;-69
2022/04/10 08:48:04;;;;;;;2.42;1.10;;;14.40;46.40;;;;;;5077363;28;20437;-70
2022/04/10 08:50:30;;;;;;;1.65;1.00;;;14.20;46.30;;;;;;5072750;28;20020;-69
2022/04/10 08:52:57;;;;;;;1.50;0.80;;;13.80;47.30;;;;;;5076248;28;20020;-68
2022/04/10 08:55:23;;;;;;;1.77;0.90;;;13.60;48.20;;;;;;5077967;28;20127;-69
2022/04/10 08:57:49;;;;;;;2.70;1.02;;;13.40;48.80;;;;;;5078523;28;20016;-69
2022/04/10 09:00:17;;;;;;;2.03;1.10;;;12.70;50.00;;;;;;5086584;28;20145;-70
2022/04/10 09:02:47;;;;;;;2.13;1.10;;;12.50;50.40;;;;;;5080680;28;20482;-69
2022/04/10 09:05:24;;;;;;;3.60;1.10;;;12.00;51.80;;;;;;5082277;28;20028;-69
2022/04/10 09:08:12;;;;;;;3.58;1.15;;;11.50;52.60;;;;;;5073459;28;20104;-69
2022/04/10 09:10:56;;;;;;;2.95;1.20;;;11.20;53.80;;;;;;5078328;28;20360;-69
2022/04/10 09:13:28;;;;;;;3.97;1.40;;;11.10;54.20;;;;;;5080160;28;20048;-68
2022/04/10 09:16:14;;;;;;;2.22;1.02;;;10.70;54.60;;;;;;5077142;28;20023;-68
2022/04/10 09:19:01;;;;;;;2.72;1.30;;;10.60;54.80;;;;;;5074818;28;20032;-67
2022/04/10 09:21:29;;;;;;;3.97;1.30;;;10.50;55.00;;;;;;5080007;28;20020;-66
2022/04/10 09:24:05;;;;;;;2.47;1.17;;;10.50;55.00;;;;;;5092016;28;20457;-68
2022/04/10 09:26:45;;;;;;;3.92;1.20;;;10.50;55.20;;;;;;5075461;28;20147;-69
2022/04/10 09:29:12;;;;;;;2.10;0.90;;;10.40;55.00;;;;;;5080534;28;20028;-69
2022/04/10 09:31:37;;;;;;;1.90;1.00;;;10.40;55.00;;;;;;5079913;28;20490;-69
2022/04/10 09:34:08;;;;;;;1.92;1.17;;;10.40;55.20;;;;;;5083345;28;20362;-69
2022/04/10 09:36:41;;;;;;;3.17;1.00;;;10.30;54.60;;;;;;5083675;28;20044;-68
2022/04/10 09:39:30;;;;;;;1.70;1.00;;;10.30;54.60;;;;;;5082498;28;20073;-70
2022/04/10 09:42:09;;;;;;;4.15;1.20;;;10.30;54.70;;;;;;5078631;28;20044;-67
2022/04/10 09:44:37;;;;;;;3.83;1.30;;;10.40;54.80;;;;;;5082249;28;20033;-70
2022/04/10 09:47:08;;;;;;;1.63;1.08;;;10.50;54.60;;;;;;5083686;28;20456;-69
2022/04/10 09:49:35;;;;;;;4.72;1.13;;;10.60;54.50;;;;;;5082897;28;20028;-70
2022/04/10 09:52:06;;;;;;;3.22;1.10;;;10.70;54.20;;;;;;5080504;28;20029;-68
2022/04/10 09:54:37;;;;;;;2.17;0.93;;;10.70;54.00;;;;;;5083741;28;20414;-67
2022/04/10 09:57:04;;;;;;;4.55;1.40;;;10.70;53.70;;;;;;5077316;28;20028;-69
2022/04/10 09:59:52;;;;;;;3.25;1.13;;;10.70;53.50;;;;;;5075418;28;20255;-69
2022/04/10 10:02:20;;;;;;;3.25;1.10;;;10.70;53.60;;;;;;5077435;28;20025;-69
2022/04/10 10:39:31;;;;;;;1.70;0.90;;;11.20;49.90;;;;;;5082628;27;20032;-66
2022/04/10 10:42:10;;;;;;;1.55;0.90;;;11.00;49.80;;;;;;5104924;27;20030;-69
2022/04/10 10:44:39;;;;;;;1.95;0.75;;;11.00;49.10;;;;;;5105887;27;20032;-70
2022/04/10 10:47:05;;;;;;;1.45;0.80;;;11.20;49.20;;;;;;5088040;28;20032;-68
2022/04/10 10:49:42;;;;;;;1.65;0.90;;;11.40;49.40;;;;;;5105965;27;20378;-70
2022/04/10 10:52:09;;;;;;;2.25;1.10;;;11.60;49.50;;;;;;5104920;28;20547;-70
2022/04/10 10:54:42;;;;;;;2.85;1.00;;;11.70;49.10;;;;;;5102838;28;20398;-70
2022/04/10 10:57:27;;;;;;;2.83;0.98;;;11.50;47.70;;;;;;5105387;28;20182;-71
2022/04/10 11:00:14;;;;;;;2.15;0.80;;;11.50;47.10;;;;;;5104015;27;20375;-70
2022/04/10 11:02:44;;;;;;;1.63;0.70;;;11.70;46.80;;;;;;5105916;28;20024;-71
2022/04/10 11:05:25;;;;;;;1.33;0.80;;;11.80;46.60;;;;;;5105708;27;20088;-71
2022/04/10 11:08:01;;;;;;;2.00;1.00;;;11.90;46.40;;;;;;5105349;28;20032;-70
2022/04/10 11:10:29;;;;;;;3.60;0.90;;;12.00;46.50;;;;;;5101332;28;20469;-71
2022/04/10 11:13:01;;;;;;;1.42;0.80;;;11.90;46.10;;;;;;5089200;27;20019;-71
2022/04/10 11:15:31;;;;;;;1.25;0.80;;;11.90;46.00;;;;;;5097471;27;20020;-71
2022/04/10 11:18:21;;;;;;;3.35;0.95;;;12.00;46.10;;;;;;5095263;28;20022;-71
2022/04/10 11:20:54;;;;;;;1.02;0.60;;;12.10;45.30;;;;;;5096857;28;20130;-71
2022/04/10 11:23:20;;;;;;;1.63;0.70;;;12.20;45.10;;;;;;5097166;27;20016;-71
2022/04/10 11:25:52;;;;;;;1.67;0.80;;;12.20;44.60;;;;;;5103933;28;20043;-71
2022/04/10 11:28:17;;;;;;;1.45;0.93;;;12.30;45.20;;;;;;5101648;28;20077;-71
2022/04/10 11:30:45;;;;;;;2.33;0.90;;;12.20;44.40;;;;;;5080895;28;20432;-71
2022/04/10 11:33:12;;;;;;;1.20;0.60;;;12.30;44.90;;;;;;5108096;27;20019;-71
2022/04/10 11:35:42;;;;;;;1.45;0.80;;;12.50;45.00;;;;;;5105149;28;20478;-71
2022/04/10 11:38:13;;;;;;;1.58;0.75;;;12.70;44.80;;;;;;5105401;28;20129;-71
2022/04/10 11:40:40;;;;;;;1.67;0.90;;;12.80;44.40;;;;;;5102047;28;20470;-71
2022/04/10 11:43:08;;;;;;;2.63;0.95;;;13.00;44.40;;;;;;5104662;28;20028;-71
2022/04/10 11:45:34;;;;;;;2.53;1.00;;;13.20;44.40;;;;;;5104277;27;20019;-71
2022/04/10 11:48:04;;;;;;;2.67;1.00;;;13.30;43.80;;;;;;5086986;28;20024;-71
2022/04/10 11:50:29;;;;;;;2.67;0.98;;;13.30;43.60;;;;;;5084036;28;20028;-70
2022/04/10 11:53:02;;;;;;;2.22;1.05;;;13.50;43.60;;;;;;5104365;27;20027;-70
2022/04/10 11:55:48;;;;;;;1.10;0.90;;;13.60;43.50;;;;;;5104886;28;20486;-71
2022/04/10 11:58:18;;;;;;;2.08;0.80;;;13.70;42.90;;;;;;5105756;28;20039;-71
2022/04/10 12:00:54;;;;;;;1.90;1.00;;;13.70;41.70;;;;;;5105107;28;20118;-70
2022/04/10 12:03:21;;;;;;;0.90;0.70;;;13.70;41.30;;;;;;5101108;28;20024;-71
2022/04/10 12:05:47;;;;;;;1.70;0.80;;;13.80;41.50;;;;;;5084289;28;20367;-69
2022/04/10 12:08:14;;;;;;;2.47;0.88;;;13.80;41.10;;;;;;5102947;28;20023;-70
2022/04/10 12:10:40;;;;;;;1.45;0.80;;;13.90;41.00;;;;;;5103176;28;20011;-70
2022/04/10 12:13:07;;;;;;;1.95;0.75;;;13.70;41.60;;;;;;5087757;28;20051;-70
2022/04/10 12:15:33;;;;;;;1.98;0.80;;;13.70;42.00;;;;;;5100273;28;20196;-70
2022/04/10 12:18:11;;;;;;;1.20;0.70;;;13.50;41.90;;;;;;5102074;28;20498;-70
2022/04/10 12:20:42;;;;;;;4.30;1.00;;;13.40;42.10;;;;;;5097243;28;20035;-70
2022/04/10 12:23:24;;;;;;;2.17;0.85;;;13.30;42.30;;;;;;5104255;28;20020;-70
2022/04/10 12:25:50;;;;;;;1.95;1.00;;;13.30;42.10;;;;;;5084915;28;20027;-70
2022/04/10 12:28:17;;;;;;;1.70;0.90;;;13.30;41.90;;;;;;5102810;27;20095;-70
2022/04/10 12:30:44;;;;;;;2.10;0.70;;;13.40;40.90;;;;;;5101163;28;20103;-70
2022/04/10 12:33:11;;;;;;;0.93;0.80;;;13.60;40.90;;;;;;5104450;27;20077;-69
2022/04/10 12:35:38;;;;;;;0.70;0.70;;;13.80;39.30;;;;;;5101393;28;20024;-69
2022/04/10 12:38:04;;;;;;;1.35;0.70;;;13.80;38.90;;;;;;5101704;28;20085;-69
2022/04/10 12:40:30;;;;;;;2.30;0.75;;;14.10;39.20;;;;;;5098336;28;20024;-69
2022/04/10 12:43:00;;;;;;;1.30;0.65;;;14.20;38.30;;;;;;5097533;28;20038;-70
2022/04/10 12:45:32;;;;;;;1.38;0.70;;;14.10;38.90;;;;;;5075324;28;20107;-70
2022/04/10 12:47:58;;;;;;;1.53;0.90;;;14.00;39.20;;;;;;5102582;28;20027;-71
2022/04/10 12:50:26;;;;;;;1.33;0.70;;;14.00;38.90;;;;;;5081792;28;20114;-69
2022/04/10 12:52:55;;;;;;;1.15;0.80;;;13.80;39.00;;;;;;5101384;28;20028;-69
2022/04/10 12:55:30;;;;;;;1.05;0.77;;;13.80;39.20;;;;;;5101086;28;20526;-69
2022/04/10 12:57:56;;;;;;;1.83;0.88;;;13.80;39.50;;;;;;5099453;28;20031;-69
2022/04/10 13:00:24;;;;;;;1.98;0.95;;;13.90;39.30;;;;;;5084646;28;20028;-70
2022/04/10 13:02:50;;;;;;;1.55;0.85;;;13.90;38.70;;;;;;5095855;28;20020;-70
2022/04/10 13:05:16;;;;;;;1.25;0.90;;;13.90;39.00;;;;;;5091349;28;20111;-70
2022/04/10 13:08:03;;;;;;;2.30;0.90;;;14.00;38.70;;;;;;5098977;27;20538;-70
2022/04/10 13:10:29;;;;;;;2.80;1.13;;;14.00;38.70;;;;;;5104171;27;20027;-69
2022/04/10 13:13:08;;;;;;;2.15;1.02;;;14.10;38.40;;;;;;5105272;28;20038;-70
2022/04/10 13:15:36;;;;;;;2.20;0.90;;;14.10;38.30;;;;;;5091986;28;20123;-70
2022/04/10 13:18:03;;;;;;;0.98;0.90;;;14.30;38.10;;;;;;5111006;28;20031;-70
2022/04/10 13:20:29;;;;;;;1.58;1.10;;;14.40;38.00;;;;;;5109698;28;20084;-70
2022/04/10 13:22:55;;;;;;;2.75;1.10;;;14.50;37.50;;;;;;5103117;28;20065;-70
2022/04/10 13:25:22;;;;;;;1.33;0.80;;;14.60;37.20;;;;;;5103639;28;20028;-70
2022/04/10 13:27:47;;;;;;;1.20;0.70;;;14.70;37.90;;;;;;5102921;27;20020;-70
2022/04/10 13:30:13;;;;;;;1.80;0.90;;;14.70;38.10;;;;;;5110710;28;20496;-70
2022/04/10 13:32:39;;;;;;;2.08;1.10;;;14.60;37.90;;;;;;5103525;28;20031;-69
2022/04/10 13:35:05;;;;;;;1.73;0.90;;;14.40;38.40;;;;;;5108419;27;20057;-69
2022/04/10 13:37:30;;;;;;;2.22;0.80;;;14.30;38.90;;;;;;5089678;27;20398;-70
2022/04/10 13:39:56;;;;;;;1.17;0.70;;;14.20;39.10;;;;;;5108330;28;20051;-69